Time;durP1;ratioP1;P1;durP2;ratioP2;P2;SDS_P1;SDS_P2;PMS_P1;PMS_P2;Temp;Humidity;BMP_temperature;BMP_pressure;BME280_temperature;BME280_humidity;BME280_pressure;Samples;Min_cycle;Max_cycle;Signal;HPM_P1;HPM_P2
2022/07/14 00:01:52;;;;;;;4.20;1.80;;;;;;;;;;5031014;28;20061;-77
2022/07/14 00:04:18;;;;;;;5.93;2.03;;;;;;;;;;5036746;28;20118;-75
2022/07/14 00:06:44;;;;;;;4.80;1.80;;;;;;;;;;5028689;28;20045;-76
2022/07/14 00:09:10;;;;;;;3.45;2.00;;;;;;;;;;5041592;28;20052;-75
2022/07/14 00:11:36;;;;;;;4.63;1.92;;;;;;;;;;5033533;28;20045;-75
2022/07/14 00:14:02;;;;;;;3.58;1.80;;;;;;;;;;5022525;28;20128;-76
2022/07/14 00:16:28;;;;;;;4.68;1.80;;;;;;;;;;5035238;28;20041;-76
2022/07/14 00:18:54;;;;;;;8.68;1.90;;;;;;;;;;5033373;28;20398;-76
2022/07/14 00:21:20;;;;;;;4.65;2.03;;;;;;;;;;5027227;28;20099;-75
2022/07/14 00:23:47;;;;;;;5.88;2.00;;;;;;;;;;5023399;28;20103;-75
2022/07/14 00:26:13;;;;;;;6.25;1.90;;;;;;;;;;5028183;28;20037;-75
2022/07/14 00:28:39;;;;;;;5.20;1.98;;;;;;;;;;5033160;28;20045;-75
2022/07/14 00:31:06;;;;;;;4.93;1.90;;;;;;;;;;5036879;28;20053;-75
2022/07/14 00:33:33;;;;;;;4.22;1.75;;;;;;;;;;5032126;28;20092;-76
2022/07/14 00:35:59;;;;;;;4.75;1.70;;;;;;;;;;5023228;28;20042;-76
2022/07/14 00:38:25;;;;;;;5.55;2.00;;;;;;;;;;5038187;28;20045;-75
2022/07/14 00:40:51;;;;;;;3.78;1.67;;;;;;;;;;5028604;28;20468;-76
2022/07/14 00:43:17;;;;;;;5.30;1.73;;;;;;;;;;5028994;28;20049;-75
2022/07/14 00:45:43;;;;;;;2.60;1.50;;;;;;;;;;5040263;28;20432;-75
2022/07/14 00:48:09;;;;;;;5.32;1.60;;;;;;;;;;5026547;28;20053;-75
2022/07/14 00:50:37;;;;;;;3.70;1.65;;;;;;;;;;5025462;28;20196;-76
2022/07/14 00:53:07;;;;;;;4.30;1.67;;;;;;;;;;5033601;28;20052;-75
2022/07/14 00:55:33;;;;;;;3.92;1.67;;;;;;;;;;5030465;28;20039;-75
2022/07/14 00:57:59;;;;;;;6.88;1.65;;;;;;;;;;5033208;28;20041;-76
2022/07/14 01:00:27;;;;;;;4.85;1.80;;;;;;;;;;5042003;28;20055;-75
2022/07/14 01:02:53;;;;;;;5.75;2.10;;;;;;;;;;5032391;28;20256;-76
2022/07/14 01:05:19;;;;;;;3.40;1.83;;;;;;;;;;5021728;28;20053;-76
2022/07/14 01:07:47;;;;;;;2.10;1.58;;;;;;;;;;5029738;28;20093;-75
2022/07/14 01:10:13;;;;;;;3.53;1.73;;;;;;;;;;5033073;28;20057;-76
2022/07/14 01:12:44;;;;;;;4.60;1.73;;;;;;;;;;5032236;28;20044;-76
2022/07/14 01:15:11;;;;;;;5.15;1.83;;;;;;;;;;5029775;28;20106;-76
2022/07/14 01:17:37;;;;;;;4.90;1.83;;;;;;;;;;5026672;28;20355;-76
2022/07/14 01:20:04;;;;;;;3.55;1.70;;;;;;;;;;5023513;28;20048;-75
2022/07/14 01:22:30;;;;;;;5.15;1.70;;;;;;;;;;5029468;28;20049;-75
2022/07/14 01:24:56;;;;;;;6.70;1.77;;;;;;;;;;5030988;28;20045;-75
2022/07/14 01:27:22;;;;;;;5.15;1.70;;;;;;;;;;5021105;28;20045;-76
2022/07/14 01:29:48;;;;;;;4.93;2.03;;;;;;;;;;5020407;28;20053;-75
2022/07/14 01:32:14;;;;;;;3.25;1.70;;;;;;;;;;5040543;28;20049;-74
2022/07/14 01:34:40;;;;;;;4.10;1.73;;;;;;;;;;5048459;28;20079;-74
2022/07/14 01:37:06;;;;;;;3.67;1.65;;;;;;;;;;5025466;28;20675;-74
2022/07/14 01:39:32;;;;;;;4.63;1.70;;;;;;;;;;5022257;28;20049;-74
2022/07/14 01:41:58;;;;;;;4.72;1.90;;;;;;;;;;5032454;28;20043;-74
2022/07/14 01:44:24;;;;;;;5.13;1.63;;;;;;;;;;5028465;28;20045;-75
2022/07/14 01:46:51;;;;;;;6.22;1.92;;;;;;;;;;5024700;28;20033;-75
2022/07/14 01:49:17;;;;;;;3.20;1.55;;;;;;;;;;5030716;28;20045;-74
2022/07/14 01:51:43;;;;;;;4.05;1.45;;;;;;;;;;5021646;28;20477;-74
2022/07/14 01:54:09;;;;;;;2.65;1.70;;;;;;;;;;5035240;28;20095;-74
2022/07/14 01:56:41;;;;;;;4.35;2.00;;;;;;;;;;5030273;28;20146;-74
2022/07/14 01:59:07;;;;;;;2.87;1.80;;;;;;;;;;5028402;28;20045;-74
2022/07/14 02:01:40;;;;;;;3.70;1.60;;;;;;;;;;5024861;28;20115;-75
2022/07/14 02:04:06;;;;;;;4.93;1.95;;;;;;;;;;5030718;28;20050;-74
2022/07/14 02:06:32;;;;;;;5.22;1.80;;;;;;;;;;5030222;28;20056;-74
2022/07/14 02:08:59;;;;;;;3.67;1.65;;;;;;;;;;5027190;28;20045;-74
2022/07/14 02:14:10;;;;;;;2.05;1.50;;;;;;;;;;5026776;28;20050;-74
2022/07/14 02:16:36;;;;;;;3.50;1.75;;;;;;;;;;5027929;28;20422;-74
2022/07/14 02:19:03;;;;;;;2.75;1.50;;;;;;;;;;5027956;28;20485;-74
2022/07/14 02:21:29;;;;;;;3.85;1.60;;;;;;;;;;5024808;28;20503;-74
2022/07/14 02:23:56;;;;;;;4.20;1.92;;;;;;;;;;5023531;28;20120;-74
2022/07/14 02:26:23;;;;;;;4.57;1.65;;;;;;;;;;5025277;28;20088;-75
2022/07/14 02:28:49;;;;;;;4.53;1.70;;;;;;;;;;5030820;28;20087;-74
2022/07/14 02:31:15;;;;;;;2.15;1.40;;;;;;;;;;5031330;28;20432;-75
2022/07/14 02:33:41;;;;;;;5.38;1.58;;;;;;;;;;5032702;28;20049;-74
2022/07/14 02:36:08;;;;;;;5.57;1.95;;;;;;;;;;5030647;28;20057;-74
2022/07/14 02:38:34;;;;;;;3.35;1.92;;;;;;;;;;5023914;28;20091;-74
2022/07/14 02:41:00;;;;;;;3.80;1.70;;;;;;;;;;5030528;28;20124;-74
2022/07/14 02:43:27;;;;;;;3.92;1.52;;;;;;;;;;5030323;28;20470;-74
2022/07/14 02:45:53;;;;;;;3.47;1.70;;;;;;;;;;5058614;28;20080;-74
2022/07/14 02:48:19;;;;;;;3.80;1.60;;;;;;;;;;5037234;28;20595;-74
2022/07/14 02:50:45;;;;;;;4.53;1.70;;;;;;;;;;5035739;28;20108;-74
2022/07/14 02:53:11;;;;;;;4.00;1.70;;;;;;;;;;5022347;28;20042;-74
2022/07/14 02:55:37;;;;;;;4.07;1.83;;;;;;;;;;5029714;28;20060;-74
2022/07/14 02:58:04;;;;;;;4.10;1.80;;;;;;;;;;5024729;28;20397;-74
2022/07/14 03:00:30;;;;;;;3.80;1.90;;;;;;;;;;5032089;28;20147;-74
2022/07/14 03:02:57;;;;;;;2.45;1.60;;;;;;;;;;5030861;28;20038;-75
2022/07/14 03:05:23;;;;;;;4.43;1.83;;;16.60;99.90;;;;;;5031016;28;20172;-74
2022/07/14 03:07:49;;;;;;;5.43;1.83;;;;;;;;;;5038314;28;20045;-74
2022/07/14 03:10:15;;;;;;;7.10;1.90;;;;;;;;;;5024044;28;20045;-74
2022/07/14 03:12:41;;;;;;;3.17;1.60;;;16.20;99.90;;;;;;5028743;28;20493;-74
2022/07/14 03:15:07;;;;;;;4.22;1.67;;;;;;;;;;5047887;28;20136;-74
2022/07/14 03:17:33;;;;;;;3.28;1.67;;;;;;;;;;5026842;28;20509;-74
2022/07/14 03:20:00;;;;;;;6.18;1.70;;;;;;;;;;5034487;28;20048;-74
2022/07/14 03:22:26;;;;;;;4.82;1.70;;;;;;;;;;5020605;28;20060;-74
2022/07/14 03:24:52;;;;;;;4.80;1.70;;;;;;;;;;5057611;28;20053;-74
2022/07/14 03:27:18;;;;;;;2.65;1.80;;;;;;;;;;5023819;28;20037;-75
2022/07/14 03:29:44;;;;;;;3.03;2.00;;;;;;;;;;5027735;28;20182;-74
2022/07/14 03:32:10;;;;;;;4.00;2.00;;;;;;;;;;5026922;28;20596;-74
2022/07/14 03:34:36;;;;;;;3.60;1.80;;;;;;;;;;5029599;28;20496;-74
2022/07/14 03:37:02;;;;;;;3.75;1.67;;;;;;;;;;5028823;28;20041;-75
2022/07/14 03:39:28;;;;;;;1.60;1.50;;;;;;;;;;5043291;28;20040;-74
2022/07/14 03:41:54;;;;;;;2.90;1.70;;;;;;;;;;5038330;28;20041;-74
2022/07/14 03:44:20;;;;;;;4.65;1.67;;;;;;;;;;5035947;28;20041;-74
2022/07/14 03:46:46;;;;;;;3.42;1.63;;;;;;;;;;5030203;28;20481;-74
2022/07/14 03:49:12;;;;;;;5.97;1.73;;;16.10;99.90;;;;;;5038266;28;20052;-74
2022/07/14 03:51:41;;;;;;;3.47;1.67;;;15.90;99.90;;;;;;5031089;28;20053;-74
2022/07/14 03:54:07;;;;;;;4.07;1.70;;;16.00;99.90;;;;;;5050111;28;20059;-74
2022/07/14 03:56:32;;;;;;;2.78;1.52;;;16.10;99.90;;;;;;5037673;28;20045;-74
2022/07/14 03:58:58;;;;;;;4.53;1.60;;;16.10;99.90;;;;;;5036116;28;20037;-75
2022/07/14 04:01:24;;;;;;;2.80;1.38;;;;;;;;;;5032574;28;20124;-74
2022/07/14 04:03:50;;;;;;;5.70;1.60;;;;;;;;;;5036177;28;20045;-74
2022/07/14 04:06:16;;;;;;;4.50;1.85;;;;;;;;;;5031802;28;20049;-74
2022/07/14 04:08:44;;;;;;;3.38;1.67;;;;;;;;;;5026143;28;20540;-74
2022/07/14 04:11:10;;;;;;;2.75;1.63;;;;;;;;;;5027879;28;20393;-74
2022/07/14 04:13:36;;;;;;;2.20;1.50;;;;;;;;;;5040514;28;20044;-74
2022/07/14 04:16:03;;;;;;;3.75;1.60;;;;;;;;;;5025142;28;20049;-74
2022/07/14 04:18:29;;;;;;;6.28;1.98;;;;;;;;;;5032852;28;20045;-74
2022/07/14 04:20:55;;;;;;;5.13;1.90;;;;;;;;;;5035326;28;20465;-74
2022/07/14 04:23:22;;;;;;;6.68;1.55;;;;;;;;;;5033729;28;20567;-74
2022/07/14 04:25:48;;;;;;;4.70;1.67;;;;;;;;;;5031935;28;20045;-74
2022/07/14 04:28:15;;;;;;;2.92;1.67;;;;;;;;;;5025998;28;20042;-74
2022/07/14 04:30:41;;;;;;;4.25;1.98;;;;;;;;;;5029580;28;20057;-74
2022/07/14 04:33:09;;;;;;;3.45;1.75;;;;;;;;;;5023983;28;20124;-74
2022/07/14 04:35:35;;;;;;;4.80;1.70;;;;;;;;;;5031535;28;20057;-74
2022/07/14 04:38:01;;;;;;;3.35;1.60;;;;;;;;;;5019250;28;20481;-74
2022/07/14 04:40:27;;;;;;;3.60;1.67;;;;;;;;;;5035814;28;20107;-74
2022/07/14 04:42:53;;;;;;;4.43;1.60;;;;;;;;;;5031772;28;20042;-74
2022/07/14 04:45:20;;;;;;;4.80;1.75;;;;;;;;;;5025254;28;20053;-74
2022/07/14 04:47:46;;;;;;;3.63;1.80;;;;;;;;;;5028660;28;20596;-74
2022/07/14 04:53:00;;;;;;;3.13;1.50;;;;;;;;;;5023531;28;20378;-74
2022/07/14 04:55:26;;;;;;;6.35;2.22;;;;;;;;;;5062277;28;20136;-74
2022/07/14 04:57:53;;;;;;;4.30;1.95;;;;;;;;;;5033227;28;20056;-74
2022/07/14 05:00:19;;;;;;;3.33;1.60;;;;;;;;;;5028448;28;20052;-74
2022/07/14 05:02:45;;;;;;;2.80;1.60;;;;;;;;;;5019408;28;20038;-74
2022/07/14 05:05:11;;;;;;;4.43;1.48;;;;;;;;;;5029743;28;20433;-74
2022/07/14 05:07:37;;;;;;;3.88;1.55;;;;;;;;;;5031474;28;20404;-74
2022/07/14 05:10:04;;;;;;;1.70;1.50;;;;;;;;;;5032983;28;20540;-74
2022/07/14 05:12:30;;;;;;;3.92;1.77;;;;;;;;;;5023427;28;20124;-74
2022/07/14 05:14:57;;;;;;;3.13;1.50;;;;;;;;;;5025194;28;20046;-74
2022/07/14 05:17:23;;;;;;;4.55;1.42;;;;;;;;;;5033448;28;20186;-74
2022/07/14 05:19:51;;;;;;;4.82;1.58;;;;;;;;;;5032188;28;20054;-74
2022/07/14 05:22:17;;;;;;;4.03;1.50;;;;;;;;;;5025767;28;20057;-73
2022/07/14 05:24:43;;;;;;;5.18;1.55;;;;;;;;;;5031635;28;20124;-73
2022/07/14 05:27:09;;;;;;;2.42;1.30;;;;;;;;;;5019191;28;20796;-74
2022/07/14 05:29:35;;;;;;;4.38;1.50;;;;;;;;;;5021766;28;20063;-74
2022/07/14 05:32:01;;;;;;;2.83;1.55;;;;;;;;;;5021445;28;20103;-73
2022/07/14 05:34:29;;;;;;;2.75;1.42;;;;;;;;;;5026865;28;20073;-74
2022/07/14 05:36:56;;;;;;;3.83;1.45;;;;;;;;;;5048326;28;20052;-74
2022/07/14 05:39:22;;;;;;;2.45;1.48;;;;;;;;;;5028976;28;20041;-74
2022/07/14 05:41:48;;;;;;;3.45;1.40;;;;;;;;;;5032931;28;20046;-74
2022/07/14 05:44:14;;;;;;;2.05;1.35;;;;;;;;;;5028825;28;20096;-74
2022/07/14 05:46:40;;;;;;;2.30;1.40;;;;;;;;;;5040067;28;20091;-74
2022/07/14 05:49:06;;;;;;;2.75;1.35;;;;;;;;;;5038614;28;20476;-74
2022/07/14 05:51:33;;;;;;;3.17;1.63;;;;;;;;;;5026330;28;20042;-74
2022/07/14 05:53:59;;;;;;;2.65;1.40;;;;;;;;;;5023113;28;20049;-74
2022/07/14 05:56:26;;;;;;;2.30;1.23;;;;;;;;;;5024328;28;20107;-74
2022/07/14 05:58:52;;;;;;;2.95;1.33;;;;;;;;;;5022487;28;20876;-74
2022/07/14 06:01:20;;;;;;;3.60;1.60;;;;;;;;;;5033627;28;20046;-74
2022/07/14 06:03:53;;;;;;;2.63;1.30;;;;;;;;;;5026491;28;20488;-74
2022/07/14 06:06:20;;;;;;;2.50;1.40;;;;;;;;;;5029079;28;20493;-73
2022/07/14 06:08:46;;;;;;;1.95;1.40;;;;;;;;;;5031413;28;20557;-74
2022/07/14 06:11:12;;;;;;;2.90;1.52;;;;;;;;;;5023247;28;20545;-73
2022/07/14 06:13:40;;;;;;;2.28;1.20;;;;;;;;;;5023623;28;20081;-74
2022/07/14 06:16:07;;;;;;;3.42;1.40;;;;;;;;;;5021506;28;20083;-73
2022/07/14 06:18:33;;;;;;;3.03;1.30;;;;;;;;;;5024509;28;20114;-74
2022/07/14 06:20:59;;;;;;;3.20;1.50;;;;;;;;;;5025026;28;20481;-73
2022/07/14 06:23:28;;;;;;;3.10;1.50;;;;;;;;;;5035879;28;20044;-73
2022/07/14 06:25:54;;;;;;;4.20;1.63;;;;;;;;;;5021882;28;20095;-74
2022/07/14 06:28:19;;;;;;;3.80;1.60;;;;;;;;;;5027535;28;20045;-74
2022/07/14 06:30:46;;;;;;;3.92;1.60;;;;;;;;;;5021236;28;20061;-74
2022/07/14 06:33:12;;;;;;;2.83;1.50;;;;;;;;;;5022576;28;20216;-74
2022/07/14 06:35:39;;;;;;;4.10;1.50;;;;;;;;;;5028994;28;20050;-73
2022/07/14 06:38:05;;;;;;;3.08;1.52;;;;;;;;;;5034456;28;20500;-72
2022/07/14 06:40:31;;;;;;;2.95;1.30;;;;;;;;;;5030554;28;20054;-73
2022/07/14 06:42:57;;;;;;;3.25;1.40;;;;;;;;;;5032760;28;20110;-73
2022/07/14 06:45:23;;;;;;;2.92;1.30;;;;;;;;;;5026866;28;20041;-73
2022/07/14 06:47:49;;;;;;;3.08;1.50;;;;;;;;;;5041139;28;20178;-74
2022/07/14 06:50:15;;;;;;;1.52;1.35;;;;;;;;;;5034358;28;20038;-73
2022/07/14 06:52:42;;;;;;;3.75;1.50;;;;;;;;;;5021702;28;20037;-73
2022/07/14 06:55:08;;;;;;;5.28;1.50;;;;;;;;;;5029383;28;20057;-73
2022/07/14 06:57:34;;;;;;;3.15;1.50;;;;;;;;;;5030117;28;20033;-73
2022/07/14 07:00:01;;;;;;;5.43;1.67;;;;;;;;;;5029139;28;20057;-73
2022/07/14 07:02:27;;;;;;;2.60;1.60;;;;;;;;;;5028782;28;20116;-73
2022/07/14 07:07:39;;;;;;;3.00;1.40;;;;;;;;;;4994307;28;20486;-73
2022/07/14 07:10:05;;;;;;;2.85;1.45;;;;;;;;;;5038210;28;20054;-73
2022/07/14 07:12:31;;;;;;;2.60;1.30;;;;;;;;;;5030161;28;20054;-74
2022/07/14 07:14:57;;;;;;;2.63;1.30;;;;;;;;;;5028788;28;20102;-73
2022/07/14 07:17:23;;;;;;;3.80;1.60;;;;;;;;;;5038062;28;20128;-73
2022/07/14 07:19:49;;;;;;;2.47;1.40;;;;;;;;;;5036806;28;20049;-74
2022/07/14 07:22:15;;;;;;;1.33;1.20;;;;;;;;;;5039024;28;20037;-73
2022/07/14 07:24:41;;;;;;;3.60;1.80;;;;;;;;;;5039339;28;20046;-73
2022/07/14 07:27:07;;;;;;;1.67;1.48;;;;;;;;;;5053598;28;20067;-73
2022/07/14 07:29:33;;;;;;;4.25;1.50;;;;;;;;;;5030061;28;20049;-74
2022/07/14 07:31:59;;;;;;;3.22;1.42;;;;;;;;;;5027608;28;20048;-74
2022/07/14 07:34:25;;;;;;;4.43;1.30;;;;;;;;;;5022606;28;20382;-73
2022/07/14 07:36:51;;;;;;;3.20;1.35;;;;;;;;;;5028375;28;20090;-73
2022/07/14 07:39:17;;;;;;;3.03;1.63;;;;;;;;;;5035147;28;20099;-74
2022/07/14 07:41:43;;;;;;;5.28;1.60;;;;;;;;;;5029546;28;20061;-74
2022/07/14 07:44:09;;;;;;;3.85;1.58;;;;;;;;;;5039153;28;20042;-74
2022/07/14 07:46:35;;;;;;;4.53;1.80;;;;;;;;;;5025953;28;20519;-74
2022/07/14 07:49:01;;;;;;;2.28;1.30;;;;;;;;;;5038427;28;20071;-74
2022/07/14 07:51:27;;;;;;;3.72;1.50;;;;;;;;;;5030387;28;20068;-73
2022/07/14 07:53:53;;;;;;;2.03;1.52;;;;;;;;;;5036671;28;20049;-74
2022/07/14 07:56:19;;;;;;;4.25;1.60;;;;;;;;;;5032364;28;20052;-74
2022/07/14 07:58:45;;;;;;;2.17;1.30;;;;;;;;;;5030262;28;20049;-74
2022/07/14 08:01:12;;;;;;;3.78;1.63;;;;;;;;;;5056242;28;20094;-74
2022/07/14 08:03:37;;;;;;;5.30;1.50;;;;;;;;;;5032158;28;20079;-73
2022/07/14 08:06:03;;;;;;;2.97;1.30;;;;;;;;;;5032967;28;20079;-73
2022/07/14 08:08:29;;;;;;;3.03;1.30;;;;;;;;;;5033051;28;20053;-73
2022/07/14 08:11:04;;;;;;;3.45;1.60;;;;;;;;;;5022975;28;20045;-73
2022/07/14 08:13:30;;;;;;;2.70;1.50;;;;;;;;;;5020025;28;20041;-74
2022/07/14 08:15:57;;;;;;;3.83;1.42;;;;;;;;;;5037315;28;20048;-73
2022/07/14 08:18:23;;;;;;;1.83;1.35;;;;;;;;;;5029986;28;20050;-74
2022/07/14 08:20:50;;;;;;;1.48;1.38;;;;;;;;;;5042690;28;20497;-74
2022/07/14 08:23:16;;;;;;;3.70;1.85;;;;;;;;;;5044021;28;20053;-73
2022/07/14 08:25:42;;;;;;;3.20;1.30;;;;;;;;;;5024588;28;20045;-73
2022/07/14 08:28:08;;;;;;;4.03;1.30;;;;;;;;;;5033818;28;20124;-73
2022/07/14 08:30:34;;;;;;;3.40;1.30;;;;;;;;;;5022682;28;20688;-74
2022/07/14 08:33:00;;;;;;;5.93;1.40;;;;;;;;;;5022410;28;20042;-74
2022/07/14 08:35:26;;;;;;;5.55;1.60;;;;;;;;;;5020631;28;20136;-74
2022/07/14 08:37:53;;;;;;;3.20;1.42;;;;;;;;;;5019076;28;20094;-74
2022/07/14 08:40:23;;;;;;;5.53;1.55;;;;;;;;;;5019563;28;20128;-74
2022/07/14 08:42:50;;;;;;;3.60;1.27;;;;;;;;;;5020647;28;20098;-74
2022/07/14 08:45:17;;;;;;;2.20;1.38;;;;;;;;;;5019664;28;20492;-74
2022/07/14 08:47:43;;;;;;;3.58;1.30;;;;;;;;;;5017547;28;20126;-74
2022/07/14 08:50:11;;;;;;;2.33;1.30;;;;;;;;;;5017742;28;20111;-74
2022/07/14 08:52:37;;;;;;;4.30;1.40;;;;;;;;;;5024020;28;20409;-74
2022/07/14 08:55:04;;;;;;;2.97;1.38;;;;;;;;;;5020793;28;20045;-74
2022/07/14 08:57:30;;;;;;;4.03;1.38;;;;;;;;;;5021166;28;20129;-74
2022/07/14 08:59:57;;;;;;;1.92;1.30;;;;;;;;;;5022726;28;20042;-73
2022/07/14 09:02:24;;;;;;;3.60;1.42;;;;;;;;;;5017627;28;20046;-73
2022/07/14 09:04:50;;;;;;;4.82;1.40;;;;;;;;;;5018636;28;20045;-74
2022/07/14 09:07:35;;;;;;;3.58;1.48;;;;;;;;;;5022493;28;20057;-73
2022/07/14 09:10:05;;;;;;;4.07;1.35;;;;;;;;;;5027943;28;20042;-74
2022/07/14 09:12:31;;;;;;;3.17;1.23;;;;;;;;;;5028266;28;20393;-74
2022/07/14 09:17:55;;;;;;;4.00;1.38;;;;;;;;;;5023647;28;20046;-74
2022/07/14 09:20:22;;;;;;;3.17;1.48;;;;;;;;;;5025143;28;20534;-74
2022/07/14 09:22:49;;;;;;;2.25;1.23;;;;;;;;;;5024505;28;20136;-74
2022/07/14 09:25:16;;;;;;;3.72;1.60;;;;;;;;;;5019911;28;20050;-74
2022/07/14 09:27:42;;;;;;;1.20;1.10;;;;;;;;;;5055760;28;20033;-74
2022/07/14 09:30:12;;;;;;;2.45;1.48;;;;;;;;;;5029581;28;20140;-74
2022/07/14 09:32:42;;;;;;;1.48;1.30;;;;;;;;;;5032485;28;20056;-73
2022/07/14 09:35:08;;;;;;;2.65;1.55;;;;;;;;;;5028876;28;20509;-73
2022/07/14 09:37:34;;;;;;;3.38;1.50;;;;;;;;;;5029880;28;20048;-74
2022/07/14 09:40:00;;;;;;;2.83;1.48;;;;;;;;;;5027121;28;20095;-74
2022/07/14 09:42:45;;;;;;;1.95;1.30;;;;;;;;;;5032337;28;20057;-73
2022/07/14 09:45:11;;;;;;;2.33;1.40;;;;;;;;;;5030888;28;20394;-74
2022/07/14 09:47:53;;;;;;;4.30;2.13;;;;;;;;;;5032340;28;20380;-73
2022/07/14 09:50:38;;;;;;;2.10;1.30;;;;;;;;;;5028475;28;20060;-73
2022/07/14 09:53:11;;;;;;;1.92;1.30;;;;;;;;;;5028534;28;20124;-74
2022/07/14 09:55:39;;;;;;;1.33;1.20;;;;;;;;;;5024045;28;20120;-74
2022/07/14 09:58:05;;;;;;;3.30;1.27;;;;;;;;;;5031795;28;20393;-74
2022/07/14 10:00:32;;;;;;;2.72;1.38;;;;;;;;;;5031252;28;20564;-74
2022/07/14 10:03:02;;;;;;;1.40;1.30;;;;;;;;;;5031134;28;20077;-73
2022/07/14 10:05:28;;;;;;;2.67;1.40;;;;;;;;;;5026638;28;20095;-74
2022/07/14 10:07:55;;;;;;;2.75;1.30;;;;;;;;;;5022210;28;20064;-74
2022/07/14 10:10:21;;;;;;;2.33;1.35;;;;;;;;;;5026384;28;20042;-74
2022/07/14 10:12:48;;;;;;;1.63;1.33;;;;;;;;;;5025736;28;20037;-74
2022/07/14 10:15:14;;;;;;;1.30;1.10;;;;;;;;;;5023462;28;20058;-73
2022/07/14 10:17:41;;;;;;;1.80;1.33;;;;;;;;;;5029370;28;20072;-73
2022/07/14 10:20:11;;;;;;;2.78;1.40;;;;;;;;;;5026849;28;20076;-73
2022/07/14 10:22:38;;;;;;;2.88;1.40;;;;;;;;;;5025237;28;20045;-73
2022/07/14 10:25:05;;;;;;;1.45;1.10;;;;;;;;;;5030080;28;20136;-74
2022/07/14 10:27:31;;;;;;;3.55;1.55;;;;;;;;;;5023020;28;20049;-73
2022/07/14 10:29:58;;;;;;;2.30;1.35;;;;;;;;;;5030070;28;20057;-73
2022/07/14 10:32:34;;;;;;;2.33;1.52;;;;;;;;;;5029806;28;20053;-73
2022/07/14 10:35:21;;;;;;;3.63;1.40;;;;;;;;;;5027389;28;20377;-74
2022/07/14 10:37:55;;;;;;;1.73;1.40;;;;;;;;;;5031697;28;20481;-74
2022/07/14 10:40:30;;;;;;;2.65;1.10;;;;;;;;;;5029698;28;20044;-73
2022/07/14 10:43:10;;;;;;;3.08;1.40;;;;;;;;;;5027134;28;20049;-73
2022/07/14 10:45:46;;;;;;;3.15;1.40;;;;;;;;;;5028405;28;20049;-74
2022/07/14 10:48:27;;;;;;;1.30;1.20;;;;;;;;;;5031647;28;20053;-74
2022/07/14 10:51:13;;;;;;;2.55;1.50;;;;;;;;;;5029986;28;20116;-74
2022/07/14 10:53:57;;;;;;;1.30;1.20;;;;;;;;;;5022546;28;20053;-73
2022/07/14 10:56:25;;;;;;;1.42;1.10;;;;;;;;;;5021315;28;20058;-73
2022/07/14 10:59:11;;;;;;;1.92;1.08;;;;;;;;;;5018766;28;20109;-73
2022/07/14 11:01:37;;;;;;;1.25;1.15;;;;;;;;;;5027638;28;20046;-73
2022/07/14 11:04:03;;;;;;;3.40;1.60;;;;;;;;;;5043897;28;20401;-73
2022/07/14 11:06:29;;;;;;;2.60;1.38;;;;;;;;;;5025493;28;20120;-73
2022/07/14 11:09:14;;;;;;;1.95;1.20;;;;;;;;;;5029314;28;20041;-73
2022/07/14 11:12:00;;;;;;;1.67;1.23;;;;;;;;;;5026295;28;20045;-73
2022/07/14 11:14:26;;;;;;;1.27;1.17;;;;;;;;;;5027134;28;20183;-73
2022/07/14 11:16:55;;;;;;;2.90;1.40;;;;;;;;;;5026966;28;20339;-73
2022/07/14 11:19:23;;;;;;;3.22;1.10;;;;;;;;;;5022812;28;20401;-73
2022/07/14 11:22:08;;;;;;;2.15;1.40;;;;;;;;;;5049362;28;20085;-74
2022/07/14 11:24:35;;;;;;;2.30;1.40;;;;;;;;;;5026688;28;20044;-73
2022/07/14 11:27:20;;;;;;;3.67;1.38;;;;;;;;;;5035140;28;20129;-80
2022/07/14 11:29:50;;;;;;;1.48;1.35;;;;;;;;;;5031046;28;20083;-74
2022/07/14 11:32:33;;;;;;;2.95;1.25;;;;;;;;;;5028873;28;20073;-74
2022/07/14 11:37:58;;;;;;;1.20;1.10;;;;;;;;;;5027799;28;20452;-73
2022/07/14 11:40:43;;;;;;;1.20;1.10;;;;;;;;;;5026946;28;20493;-74
2022/07/14 11:43:28;;;;;;;1.42;1.20;;;;;;;;;;5024056;28;20060;-73
2022/07/14 11:45:58;;;;;;;2.00;1.20;;;;;;;;;;5061774;28;20056;-73
2022/07/14 11:48:28;;;;;;;2.05;1.13;;;;;;;;;;5021860;28;20120;-74
2022/07/14 11:51:14;;;;;;;2.83;1.50;;;;;;;;;;5021552;28;20045;-74
2022/07/14 11:53:43;;;;;;;3.35;1.30;;;;;;;;;;5019492;28;20041;-73
2022/07/14 11:56:10;;;;;;;2.47;1.20;;;;;;;;;;5017538;28;20120;-74
2022/07/14 11:58:40;;;;;;;1.17;0.98;;;;;;;;;;5028433;28;20112;-74
2022/07/14 12:01:07;;;;;;;1.83;1.23;;;;;;;;;;5021737;28;20103;-73
2022/07/14 12:03:34;;;;;;;5.13;1.30;;;;;;;;;;5026476;28;20041;-73
2022/07/14 12:06:00;;;;;;;2.70;1.20;;;;;;;;;;5026648;28;20044;-73
2022/07/14 12:08:31;;;;;;;1.63;1.30;;;;;;;;;;5021380;28;20053;-74
2022/07/14 12:11:11;;;;;;;2.47;1.10;;;;;;;;;;5018358;28;20533;-73
2022/07/14 12:13:53;;;;;;;1.83;1.10;;;;;;;;;;5027351;28;20041;-74
2022/07/14 12:16:20;;;;;;;1.55;1.30;;;;;;;;;;5028514;28;20037;-74
2022/07/14 12:18:46;;;;;;;2.75;1.52;;;;;;;;;;5021334;28;20433;-73
2022/07/14 12:21:12;;;;;;;3.28;1.33;;;;;;;;;;5027173;28;20444;-73
2022/07/14 12:23:50;;;;;;;2.22;1.38;;;;;;;;;;5027328;28;20126;-74
2022/07/14 12:26:21;;;;;;;1.30;1.20;;;;;;;;;;5026417;28;20041;-74
2022/07/14 12:28:54;;;;;;;2.20;1.20;;;;;;;;;;5018441;28;20108;-74
2022/07/14 12:31:21;;;;;;;3.13;1.33;;;;;;;;;;5027055;28;20089;-74
2022/07/14 12:33:47;;;;;;;3.17;1.33;;;;;;;;;;5026980;28;20552;-74
2022/07/14 12:36:15;;;;;;;2.33;1.15;;;;;;;;;;5028453;28;20137;-73
2022/07/14 12:38:42;;;;;;;3.97;1.30;;;;;;;;;;5023398;28;20049;-74
2022/07/14 12:41:08;;;;;;;1.50;1.10;;;;;;;;;;5023479;28;20046;-73
2022/07/14 12:43:35;;;;;;;4.53;1.52;;;;;;;;;;5028600;28;20049;-74
2022/07/14 12:46:05;;;;;;;2.75;1.35;;;;;;;;;;5022495;28;20111;-74
2022/07/14 12:48:32;;;;;;;2.35;1.50;;;;;;;;;;5023572;28;20057;-74
2022/07/14 12:51:15;;;;;;;2.35;1.33;;;;;;;;;;5023280;28;20143;-73
2022/07/14 12:53:55;;;;;;;3.33;1.73;;;;;;;;;;5028051;28;20136;-73
2022/07/14 12:56:22;;;;;;;4.03;1.55;;;;;;;;;;5022995;28;20046;-74
2022/07/14 12:58:48;;;;;;;2.78;1.30;;;;;;;;;;5027968;28;20045;-74
2022/07/14 13:01:14;;;;;;;4.30;1.42;;;;;;;;;;5024444;28;20042;-73
2022/07/14 13:03:40;;;;;;;3.38;1.38;;;;;;;;;;5023963;28;20045;-73
2022/07/14 13:06:06;;;;;;;1.65;1.10;;;;;;;;;;5023140;28;20083;-73
2022/07/14 13:08:36;;;;;;;4.03;1.38;;;;;;;;;;5028216;28;20061;-74
2022/07/14 13:11:10;;;;;;;1.40;1.30;;;;;;;;;;5024528;28;20565;-74
2022/07/14 13:13:37;;;;;;;2.20;1.45;;;;;;;;;;5021822;28;20366;-73
2022/07/14 13:16:18;;;;;;;5.32;1.38;;;;;;;;;;5022027;28;20034;-74
2022/07/14 13:19:04;;;;;;;2.60;1.20;;;;;;;;;;5023521;28;20057;-76
2022/07/14 13:21:45;;;;;;;1.80;1.10;;;;;;;;;;5029891;28;20061;-73
2022/07/14 13:24:13;;;;;;;1.02;1.00;;;;;;;;;;5027438;28;20045;-73
2022/07/14 13:26:39;;;;;;;2.60;1.30;;;;;;;;;;5026088;28;20045;-73
2022/07/14 13:29:05;;;;;;;2.45;1.30;;;;;;;;;;5022085;28;20045;-73
2022/07/14 13:31:31;;;;;;;1.77;1.33;;;;;;;;;;5023921;28;20167;-74
2022/07/14 13:34:01;;;;;;;2.33;1.50;;;;;;;;;;5027508;28;20492;-73
2022/07/14 13:36:28;;;;;;;2.30;1.50;;;;;;;;;;5027249;28;20413;-72
2022/07/14 13:38:54;;;;;;;2.63;1.65;;;;;;;;;;5060706;28;20132;-78
2022/07/14 13:41:20;;;;;;;3.40;1.75;;;;;;;;;;5024251;28;20049;-74
2022/07/14 13:43:47;;;;;;;5.53;1.50;;;;;;;;;;5024520;28;20053;-75
2022/07/14 13:46:14;;;;;;;2.92;1.70;;;;;;;;;;5023956;28;20501;-77
2022/07/14 13:48:41;;;;;;;5.82;1.90;;;;;;;;;;5031894;28;20037;-76
2022/07/14 13:53:55;;;;;;;1.77;1.30;;;;;;;;;;5018229;28;20069;-75
2022/07/14 13:56:24;;;;;;;6.03;1.90;;;;;;;;;;5027605;28;20053;-74
2022/07/14 13:58:50;;;;;;;2.90;1.60;;;;;;;;;;5027272;28;20176;-76
2022/07/14 14:01:16;;;;;;;5.57;1.73;;;;;;;;;;5029964;28;20512;-74
2022/07/14 14:03:42;;;;;;;3.63;1.58;;;;;;;;;;5029625;28;20046;-75
2022/07/14 14:06:14;;;;;;;3.10;1.70;;;;;;;;;;5032590;28;20048;-74
2022/07/14 14:08:41;;;;;;;5.80;1.90;;;;;;;;;;5029995;28;20117;-75
2022/07/14 14:11:07;;;;;;;4.70;2.10;;;;;;;;;;5022294;28;20472;-73
2022/07/14 14:13:34;;;;;;;2.92;1.80;;;;;;;;;;5024037;28;20044;-74
2022/07/14 14:16:01;;;;;;;4.85;2.03;;;;;;;;;;5030033;28;20056;-73
2022/07/14 14:18:30;;;;;;;5.30;2.00;;;;;;;;;;5025801;28;20066;-74
2022/07/14 14:20:57;;;;;;;3.67;1.88;;;;;;;;;;5032973;28;20476;-75
2022/07/14 14:23:24;;;;;;;4.85;1.67;;;;;;;;;;5030130;28;20464;-73
2022/07/14 14:25:50;;;;;;;4.47;2.08;;;;;;;;;;5040526;28;20511;-74
2022/07/14 14:28:16;;;;;;;6.45;1.80;;;;;;;;;;5032569;28;20049;-74
2022/07/14 14:30:42;;;;;;;3.72;2.03;;;;;;;;;;5031173;28;20120;-74
2022/07/14 14:33:08;;;;;;;2.88;1.77;;;;;;;;;;5031001;28;20053;-74
2022/07/14 14:35:34;;;;;;;2.95;1.67;;;;;;;;;;5033785;28;20095;-75
2022/07/14 14:38:02;;;;;;;4.88;1.65;;;;;;;;;;5030285;28;20095;-74
2022/07/14 14:40:29;;;;;;;3.65;1.60;;;;;;;;;;5032432;28;20152;-75
2022/07/14 14:42:56;;;;;;;3.35;1.75;;;;;;;;;;5030830;28;20045;-74
2022/07/14 14:45:22;;;;;;;3.58;1.50;;;;;;;;;;5052860;28;20085;-75
2022/07/14 14:47:48;;;;;;;2.40;1.50;;;;;;;;;;5023202;28;20041;-74
2022/07/14 14:50:14;;;;;;;3.30;1.90;;;;;;;;;;5029814;28;20107;-75
2022/07/14 14:52:40;;;;;;;2.00;1.67;;;;;;;;;;5028722;28;20034;-75
2022/07/14 14:55:07;;;;;;;2.85;1.83;;;;;;;;;;5030108;28;20642;-75
2022/07/14 14:57:33;;;;;;;2.38;1.60;;;;;;;;;;5030685;28;20057;-76
2022/07/14 14:59:59;;;;;;;3.55;1.60;;;;;;;;;;5030071;28;20053;-76
2022/07/14 15:02:30;;;;;;;2.88;1.50;;;;;;;;;;5028033;28;20089;-76